IBE311 LEMD-MMMX
Flight info
| Callsign | IBE311 |
|---|---|
| Flight time | N/A |
| Altitude | 36000 |
| Route | ZMR N733 DESAT DCT STG DCT KOPAS/M084F360 DCT 44N020W 44N030W 44N040W 43N050W DCT SOORY M204 SUMRS/N0491F360 A699 PBI DCT MARCI M580 IRDOV UM580 TADET UT154 ENAGA ENAGA3A |
| Aircraft | A359/H-SDE2E3GHIJ3J4J5LM1ORWXY/LB1D1 |
Departure
| Time | N/A |
|---|---|
| Airport | Adolfo Suárez Madrid–Barajas Airport (LEMD) |
Arrival
| Time | 2026-05-08 03:55 |
|---|---|
| Airport | Mexico City Benito Juárez International Airport (MMMX) |
| Time | Latitude | Longitude | Altitude | Speed | Heading |
|---|---|---|---|---|---|
| 2026-05-08 02:51 | 22.20084 | -92.99323 | 35925 ft | 483 kts | 243° |
| 2026-05-08 02:51 | 22.18463 | -93.02509 | 35923 ft | 483 kts | 243° |
| 2026-05-08 02:51 | 22.15221 | -93.08872 | 35920 ft | 482 kts | 243° |
| 2026-05-08 02:52 | 22.12008 | -93.15172 | 35921 ft | 482 kts | 243° |
| 2026-05-08 02:52 | 22.08767 | -93.21517 | 35915 ft | 483 kts | 242° |
| 2026-05-08 02:53 | 22.05502 | -93.27903 | 35920 ft | 485 kts | 242° |
| 2026-05-08 02:53 | 22.02257 | -93.34242 | 35917 ft | 485 kts | 242° |
| 2026-05-08 02:54 | 21.99004 | -93.40588 | 35916 ft | 485 kts | 242° |
| 2026-05-08 02:54 | 21.95727 | -93.46973 | 35917 ft | 485 kts | 242° |
| 2026-05-08 02:55 | 21.90830 | -93.56499 | 35916 ft | 485 kts | 242° |
| 2026-05-08 02:56 | 21.87547 | -93.62878 | 35909 ft | 485 kts | 242° |
| 2026-05-08 02:56 | 21.84287 | -93.69204 | 35908 ft | 485 kts | 242° |
| 2026-05-08 02:57 | 21.81014 | -93.75572 | 35912 ft | 485 kts | 243° |
| 2026-05-08 02:57 | 21.77785 | -93.81960 | 35905 ft | 485 kts | 243° |
| 2026-05-08 02:58 | 21.74563 | -93.88348 | 35903 ft | 485 kts | 243° |
| 2026-05-08 02:58 | 21.71340 | -93.94714 | 35906 ft | 487 kts | 243° |
| 2026-05-08 02:59 | 21.68087 | -94.01125 | 35910 ft | 488 kts | 242° |
| 2026-05-08 02:59 | 21.64844 | -94.07504 | 35912 ft | 488 kts | 242° |
| 2026-05-08 03:00 | 21.61585 | -94.13906 | 35918 ft | 488 kts | 242° |
| 2026-05-08 03:00 | 21.58323 | -94.20308 | 35909 ft | 487 kts | 242° |
| 2026-05-08 03:01 | 21.55082 | -94.26663 | 35911 ft | 487 kts | 242° |
| 2026-05-08 03:01 | 21.51817 | -94.33054 | 35903 ft | 487 kts | 242° |
| 2026-05-08 03:02 | 21.48551 | -94.39441 | 35902 ft | 487 kts | 242° |
| 2026-05-08 03:02 | 21.45297 | -94.45799 | 35899 ft | 487 kts | 242° |
| 2026-05-08 03:03 | 21.42032 | -94.52168 | 35906 ft | 487 kts | 242° |
| 2026-05-08 03:03 | 21.38758 | -94.58549 | 35905 ft | 487 kts | 242° |
| 2026-05-08 03:04 | 21.35485 | -94.64919 | 35894 ft | 486 kts | 242° |
| 2026-05-08 03:04 | 21.32242 | -94.71223 | 35895 ft | 486 kts | 242° |
| 2026-05-08 03:05 | 21.28969 | -94.77579 | 35897 ft | 485 kts | 242° |
| 2026-05-08 03:05 | 21.25696 | -94.83929 | 35892 ft | 486 kts | 242° |
| 2026-05-08 03:06 | 21.22437 | -94.90241 | 35895 ft | 486 kts | 242° |
| 2026-05-08 03:06 | 21.19176 | -94.96553 | 35895 ft | 485 kts | 242° |
| 2026-05-08 03:07 | 21.15891 | -95.02862 | 35901 ft | 484 kts | 241° |
| 2026-05-08 03:07 | 21.12442 | -95.09083 | 35898 ft | 484 kts | 240° |
| 2026-05-08 03:08 | 21.08955 | -95.15268 | 35898 ft | 484 kts | 240° |
| 2026-05-08 03:08 | 21.05507 | -95.21430 | 35888 ft | 484 kts | 240° |
| 2026-05-08 03:09 | 21.02326 | -95.27816 | 35894 ft | 487 kts | 249° |
| 2026-05-08 03:09 | 21.00545 | -95.34776 | 35893 ft | 488 kts | 257° |
| 2026-05-08 03:10 | 20.99207 | -95.41907 | 35895 ft | 488 kts | 258° |
| 2026-05-08 03:10 | 20.97935 | -95.49044 | 35894 ft | 488 kts | 258° |
| 2026-05-08 03:11 | 20.96859 | -95.54979 | 35895 ft | 488 kts | 258° |
| 2026-05-08 03:11 | 20.95323 | -95.63304 | 35892 ft | 488 kts | 258° |
| 2026-05-08 03:12 | 20.93977 | -95.70443 | 35900 ft | 488 kts | 258° |
| 2026-05-08 03:12 | 20.92633 | -95.77546 | 35895 ft | 489 kts | 257° |
| 2026-05-08 03:13 | 20.91279 | -95.84709 | 35895 ft | 489 kts | 257° |
| 2026-05-08 03:13 | 20.89935 | -95.91811 | 35892 ft | 489 kts | 257° |
| 2026-05-08 03:14 | 20.88587 | -95.98923 | 35890 ft | 489 kts | 257° |
| 2026-05-08 03:14 | 20.87459 | -96.04862 | 35899 ft | 489 kts | 257° |
| 2026-05-08 03:15 | 20.86099 | -96.12003 | 35887 ft | 488 kts | 257° |
| 2026-05-08 03:15 | 20.84743 | -96.19107 | 35887 ft | 487 kts | 257° |
| 2026-05-08 03:16 | 20.83393 | -96.26165 | 35889 ft | 487 kts | 257° |
| 2026-05-08 03:16 | 20.82029 | -96.33278 | 35892 ft | 487 kts | 257° |
| 2026-05-08 03:17 | 20.80672 | -96.40337 | 35886 ft | 487 kts | 257° |
| 2026-05-08 03:17 | 20.79302 | -96.47449 | 35890 ft | 486 kts | 257° |
| 2026-05-08 03:18 | 20.77943 | -96.54489 | 35887 ft | 485 kts | 257° |
| 2026-05-08 03:18 | 20.76577 | -96.61568 | 35887 ft | 485 kts | 257° |
| 2026-05-08 03:19 | 20.75212 | -96.68633 | 35889 ft | 485 kts | 257° |
| 2026-05-08 03:19 | 20.73852 | -96.75644 | 35890 ft | 485 kts | 257° |
| 2026-05-08 03:20 | 20.72479 | -96.82718 | 35892 ft | 485 kts | 257° |
| 2026-05-08 03:20 | 20.71809 | -96.86182 | 35891 ft | 473 kts | 257° |
| 2026-05-08 03:20 | 20.71149 | -96.89572 | 35890 ft | 456 kts | 257° |
| 2026-05-08 03:20 | 20.70507 | -96.92850 | 35890 ft | 444 kts | 257° |
| 2026-05-08 03:21 | 20.69873 | -96.96069 | 35889 ft | 442 kts | 257° |
| 2026-05-08 03:21 | 20.68608 | -97.02487 | 35895 ft | 441 kts | 257° |
| 2026-05-08 03:22 | 20.67352 | -97.08865 | 35896 ft | 441 kts | 257° |
| 2026-05-08 03:22 | 20.66086 | -97.15292 | 35895 ft | 442 kts | 257° |
| 2026-05-08 03:23 | 20.64817 | -97.21732 | 35899 ft | 444 kts | 257° |
| 2026-05-08 03:23 | 20.63543 | -97.28175 | 35895 ft | 445 kts | 257° |
| 2026-05-08 03:24 | 20.62262 | -97.34651 | 35902 ft | 445 kts | 257° |
| 2026-05-08 03:24 | 20.60935 | -97.41113 | 35901 ft | 444 kts | 253° |
| 2026-05-08 03:25 | 20.58526 | -97.47114 | 35901 ft | 442 kts | 237° |
| 2026-05-08 03:25 | 20.54810 | -97.52342 | 35904 ft | 441 kts | 231° |
| 2026-05-08 03:26 | 20.50832 | -97.57351 | 35904 ft | 441 kts | 230° |
| 2026-05-08 03:26 | 20.46845 | -97.62309 | 35909 ft | 441 kts | 230° |
| 2026-05-08 03:27 | 20.42893 | -97.67262 | 35921 ft | 440 kts | 230° |
| 2026-05-08 03:27 | 20.38923 | -97.72260 | 35886 ft | 440 kts | 230° |
| 2026-05-08 03:27 | 20.36947 | -97.74752 | 35680 ft | 439 kts | 230° |
| 2026-05-08 03:28 | 20.34968 | -97.77246 | 35446 ft | 440 kts | 230° |
| 2026-05-08 03:28 | 20.33004 | -97.79720 | 35208 ft | 441 kts | 230° |
| 2026-05-08 03:28 | 20.31016 | -97.82220 | 34986 ft | 442 kts | 230° |
| 2026-05-08 03:28 | 20.29020 | -97.84731 | 34772 ft | 443 kts | 230° |
| 2026-05-08 03:29 | 20.27023 | -97.87241 | 34487 ft | 445 kts | 230° |
| 2026-05-08 03:29 | 20.25010 | -97.89770 | 34230 ft | 447 kts | 230° |
| 2026-05-08 03:29 | 20.23018 | -97.92272 | 33941 ft | 448 kts | 230° |
| 2026-05-08 03:29 | 20.20994 | -97.94813 | 33601 ft | 450 kts | 230° |
| 2026-05-08 03:30 | 20.16924 | -97.99923 | 32939 ft | 451 kts | 229° |
| 2026-05-08 03:30 | 20.12871 | -98.05002 | 32328 ft | 453 kts | 229° |
| 2026-05-08 03:31 | 20.08587 | -98.10340 | 31615 ft | 456 kts | 229° |
| 2026-05-08 03:31 | 20.04627 | -98.15286 | 30757 ft | 458 kts | 230° |
| 2026-05-08 03:32 | 20.02833 | -98.18077 | 30301 ft | 454 kts | 240° |
| 2026-05-08 03:32 | 20.01638 | -98.21108 | 30111 ft | 446 kts | 252° |
| 2026-05-08 03:32 | 20.00899 | -98.24311 | 30105 ft | 445 kts | 256° |
| 2026-05-08 03:33 | 19.99603 | -98.30784 | 30112 ft | 447 kts | 256° |
| 2026-05-08 03:33 | 19.98303 | -98.37260 | 30119 ft | 448 kts | 256° |
| 2026-05-08 03:34 | 19.97002 | -98.43699 | 30123 ft | 448 kts | 256° |
| 2026-05-08 03:34 | 19.95686 | -98.50196 | 30114 ft | 448 kts | 256° |
| 2026-05-08 03:35 | 19.94376 | -98.56653 | 30117 ft | 448 kts | 256° |
| 2026-05-08 03:36 | 19.91829 | -98.69162 | 30108 ft | 450 kts | 256° |
| 2026-05-08 03:36 | 19.90661 | -98.75688 | 30167 ft | 453 kts | 261° |
| 2026-05-08 03:37 | 19.89916 | -98.82343 | 30005 ft | 452 kts | 261° |
| 2026-05-08 03:37 | 19.89551 | -98.85672 | 29461 ft | 451 kts | 261° |
| 2026-05-08 03:37 | 19.89198 | -98.88986 | 28838 ft | 449 kts | 263° |
| 2026-05-08 03:37 | 19.89182 | -98.92267 | 28240 ft | 449 kts | 271° |
| 2026-05-08 03:38 | 19.89393 | -98.95578 | 27627 ft | 447 kts | 272° |
| 2026-05-08 03:38 | 19.89628 | -98.98867 | 27018 ft | 444 kts | 272° |
| 2026-05-08 03:38 | 19.89858 | -99.02139 | 26418 ft | 442 kts | 272° |
| 2026-05-08 03:38 | 19.90082 | -99.05388 | 25838 ft | 439 kts | 272° |
| 2026-05-08 03:39 | 19.90302 | -99.08612 | 25267 ft | 436 kts | 272° |
| 2026-05-08 03:39 | 19.90518 | -99.11821 | 24697 ft | 433 kts | 272° |
| 2026-05-08 03:39 | 19.90729 | -99.14974 | 24125 ft | 428 kts | 271° |
| 2026-05-08 03:39 | 19.90936 | -99.18066 | 23415 ft | 412 kts | 271° |
| 2026-05-08 03:40 | 19.91135 | -99.21053 | 22657 ft | 397 kts | 272° |
| 2026-05-08 03:40 | 19.91326 | -99.23939 | 21913 ft | 384 kts | 272° |
| 2026-05-08 03:40 | 19.91508 | -99.26700 | 21190 ft | 372 kts | 272° |
| 2026-05-08 03:40 | 19.91516 | -99.29413 | 20470 ft | 358 kts | 260° |
| 2026-05-08 03:41 | 19.91007 | -99.31960 | 19792 ft | 347 kts | 254° |
| 2026-05-08 03:41 | 19.90400 | -99.34394 | 19112 ft | 339 kts | 254° |
| 2026-05-08 03:41 | 19.89794 | -99.36799 | 18465 ft | 333 kts | 254° |
| 2026-05-08 03:41 | 19.89201 | -99.39170 | 17956 ft | 329 kts | 255° |
| 2026-05-08 03:42 | 19.88634 | -99.41450 | 17769 ft | 329 kts | 255° |
| 2026-05-08 03:42 | 19.87908 | -99.43750 | 17740 ft | 331 kts | 245° |
| 2026-05-08 03:42 | 19.86586 | -99.45722 | 17740 ft | 327 kts | 221° |
| 2026-05-08 03:42 | 19.84604 | -99.46858 | 17731 ft | 322 kts | 195° |
| 2026-05-08 03:43 | 19.82457 | -99.46954 | 17507 ft | 306 kts | 170° |
| 2026-05-08 03:43 | 19.80543 | -99.46042 | 16811 ft | 304 kts | 142° |
| 2026-05-08 03:43 | 19.78947 | -99.44531 | 15964 ft | 306 kts | 145° |
| 2026-05-08 03:43 | 19.77171 | -99.43303 | 15220 ft | 303 kts | 148° |
| 2026-05-08 03:44 | 19.75698 | -99.41741 | 14669 ft | 298 kts | 123° |
| 2026-05-08 03:44 | 19.74921 | -99.39750 | 14349 ft | 297 kts | 107° |
| 2026-05-08 03:44 | 19.74424 | -99.37609 | 14031 ft | 297 kts | 104° |
| 2026-05-08 03:44 | 19.73975 | -99.35467 | 13723 ft | 296 kts | 104° |
| 2026-05-08 03:45 | 19.73540 | -99.33364 | 13394 ft | 294 kts | 104° |
| 2026-05-08 03:45 | 19.73100 | -99.31256 | 13071 ft | 291 kts | 104° |
| 2026-05-08 03:45 | 19.72659 | -99.29156 | 12736 ft | 289 kts | 104° |
| 2026-05-08 03:45 | 19.72222 | -99.27072 | 12446 ft | 288 kts | 104° |
| 2026-05-08 03:46 | 19.71790 | -99.25012 | 12371 ft | 284 kts | 104° |
| 2026-05-08 03:46 | 19.71362 | -99.22969 | 12377 ft | 284 kts | 104° |
| 2026-05-08 03:46 | 19.70937 | -99.20947 | 12400 ft | 284 kts | 104° |
| 2026-05-08 03:46 | 19.70506 | -99.18891 | 12290 ft | 284 kts | 104° |
| 2026-05-08 03:47 | 19.70077 | -99.16850 | 12065 ft | 282 kts | 104° |
| 2026-05-08 03:47 | 19.69650 | -99.14820 | 11843 ft | 281 kts | 104° |
| 2026-05-08 03:47 | 19.69225 | -99.12807 | 11627 ft | 279 kts | 104° |
| 2026-05-08 03:47 | 19.68800 | -99.10813 | 11405 ft | 277 kts | 104° |
| 2026-05-08 03:48 | 19.68376 | -99.08821 | 11052 ft | 276 kts | 104° |
| 2026-05-08 03:48 | 19.67962 | -99.06833 | 10895 ft | 275 kts | 104° |
| 2026-05-08 03:48 | 19.67488 | -99.04868 | 10860 ft | 271 kts | 112° |
| 2026-05-08 03:48 | 19.66614 | -99.03181 | 10853 ft | 253 kts | 130° |
| 2026-05-08 03:49 | 19.65345 | -99.01978 | 10866 ft | 246 kts | 150° |
| 2026-05-08 03:49 | 19.63780 | -99.01251 | 10877 ft | 246 kts | 160° |
| 2026-05-08 03:49 | 19.62311 | -99.00296 | 10898 ft | 247 kts | 146° |
| 2026-05-08 03:49 | 19.60907 | -98.99272 | 10654 ft | 244 kts | 147° |
| 2026-05-08 03:50 | 19.59475 | -98.98286 | 10329 ft | 245 kts | 148° |
| 2026-05-08 03:50 | 19.58024 | -98.97329 | 9975 ft | 245 kts | 149° |
| 2026-05-08 03:50 | 19.56584 | -98.96401 | 9654 ft | 245 kts | 149° |
| 2026-05-08 03:50 | 19.55118 | -98.95472 | 9391 ft | 246 kts | 148° |
| 2026-05-08 03:51 | 19.53649 | -98.94524 | 9133 ft | 245 kts | 143° |
| 2026-05-08 03:51 | 19.52215 | -98.93883 | 8966 ft | 228 kts | 173° |
| 2026-05-08 03:51 | 19.50786 | -98.94267 | 8947 ft | 212 kts | 212° |
| 2026-05-08 03:51 | 19.49853 | -98.95395 | 8962 ft | 201 kts | 245° |
| 2026-05-08 03:52 | 19.49282 | -98.96696 | 8968 ft | 189 kts | 246° |
| 2026-05-08 03:52 | 19.48682 | -98.97926 | 8977 ft | 183 kts | 242° |
| 2026-05-08 03:52 | 19.48036 | -98.99043 | 8924 ft | 176 kts | 239° |
| 2026-05-08 03:52 | 19.47415 | -99.00154 | 8648 ft | 174 kts | 241° |
| 2026-05-08 03:53 | 19.46810 | -99.01248 | 8344 ft | 169 kts | 239° |
| 2026-05-08 03:53 | 19.46212 | -99.02315 | 8060 ft | 166 kts | 240° |
| 2026-05-08 03:53 | 19.45633 | -99.03353 | 7785 ft | 163 kts | 242° |
| 2026-05-08 03:53 | 19.45061 | -99.04373 | 7589 ft | 158 kts | 242° |
| 2026-05-08 03:54 | 19.44506 | -99.05358 | 7380 ft | 152 kts | 243° |
| 2026-05-08 03:54 | 19.43992 | -99.06278 | 7311 ft | 139 kts | 243° |
| 2026-05-08 03:54 | 19.43551 | -99.07073 | 7309 ft | 108 kts | 239° |
| 2026-05-08 03:54 | 19.43223 | -99.07657 | 7311 ft | 82 kts | 239° |
| 2026-05-08 03:55 | 19.43023 | -99.08047 | 7310 ft | 43 kts | 257° |
| 2026-05-08 03:55 | 19.43020 | -99.08317 | 7308 ft | 25 kts | 271° |
| 2026-05-08 03:55 | 19.43020 | -99.08355 | 7308 ft | 0 kts | 271° |
| 2026-05-08 03:56 | 19.43021 | -99.08386 | 7308 ft | 11 kts | 271° |
| 2026-05-08 03:56 | 19.43023 | -99.08484 | 7307 ft | 14 kts | 271° |
| 2026-05-08 03:57 | 19.43048 | -99.08581 | 7307 ft | 14 kts | 305° |
| 2026-05-08 03:57 | 19.43109 | -99.08620 | 7307 ft | 5 kts | 357° |
| 2026-05-08 03:57 | 19.43134 | -99.08607 | 7307 ft | 4 kts | 41° |
| 2026-05-08 03:57 | 19.43149 | -99.08583 | 7307 ft | 4 kts | 58° |
| 2026-05-08 03:58 | 19.43167 | -99.08551 | 7307 ft | 6 kts | 58° |
| 2026-05-08 03:58 | 19.43190 | -99.08511 | 7307 ft | 7 kts | 58° |
| 2026-05-08 03:58 | 19.43202 | -99.08491 | 7307 ft | 1 kts | 59° |
| 2026-05-08 03:58 | 19.43204 | -99.08488 | 7307 ft | 0 kts | 59° |
| 2026-05-08 03:59 | 19.43226 | -99.08450 | 7307 ft | 9 kts | 58° |
| 2026-05-08 03:59 | 19.43259 | -99.08393 | 7308 ft | 10 kts | 58° |
| 2026-05-08 03:59 | 19.43299 | -99.08321 | 7308 ft | 14 kts | 59° |
| 2026-05-08 03:59 | 19.43354 | -99.08226 | 7309 ft | 16 kts | 58° |
| 2026-05-08 04:00 | 19.43411 | -99.08126 | 7309 ft | 16 kts | 59° |
| 2026-05-08 04:00 | 19.43463 | -99.08042 | 7309 ft | 8 kts | 50° |
| 2026-05-08 04:00 | 19.43512 | -99.08030 | 7309 ft | 7 kts | 343° |
| 2026-05-08 04:00 | 19.43551 | -99.08051 | 7309 ft | 0 kts | 331° |
| 2026-05-08 04:01 | 19.43550 | -99.08051 | 7309 ft | 0 kts | 331° |